Time;durP1;ratioP1;P1;durP2;ratioP2;P2;SDS_P1;SDS_P2;PMS_P1;PMS_P2;Temp;Humidity;BMP_temperature;BMP_pressure;BME280_temperature;BME280_humidity;BME280_pressure;Samples;Min_cycle;Max_cycle;Signal;HPM_P1;HPM_P2
2023/02/09 00:03:25;;;;;;;;;;;1.60;96.10;;;;;;8372732;28;20384;-73
2023/02/09 00:07:26;;;;;;;;;;;1.60;96.20;;;;;;8372644;28;20386;-73
2023/02/09 00:15:51;;;;;;;;;;;1.60;95.90;;;;;;8387074;28;19931;-73
2023/02/09 00:19:53;;;;;;;;;;;1.50;96.00;;;;;;8367985;28;19931;-73
2023/02/09 00:23:57;;;;;;;;;;;1.50;95.70;;;;;;8390175;28;20020;-73
2023/02/09 00:27:58;;;;;;;;;;;1.50;95.80;;;;;;8382045;28;19929;-73
2023/02/09 00:32:00;;;;;;;;;;;1.40;95.90;;;;;;8380625;28;19944;-73
2023/02/09 00:36:03;;;;;;;;;;;1.40;95.80;;;;;;8394876;28;19933;-73
2023/02/09 00:40:05;;;;;;;;;;;1.30;95.80;;;;;;8386679;28;19929;-73
2023/02/09 00:44:07;;;;;;;;;;;1.30;95.60;;;;;;8385090;28;19925;-73
2023/02/09 00:48:09;;;;;;;;;;;1.20;95.70;;;;;;8385555;28;19943;-73
2023/02/09 00:52:10;;;;;;;;;;;1.20;95.90;;;;;;8390300;28;19946;-73
2023/02/09 00:56:12;;;;;;;;;;;1.10;95.70;;;;;;8386014;28;19928;-74
2023/02/09 01:00:14;;;;;;;;;;;1.10;95.80;;;;;;8383529;28;19929;-74
2023/02/09 01:04:16;;;;;;;;;;;1.00;96.00;;;;;;8380429;28;20425;-73
2023/02/09 01:08:17;;;;;;;;;;;0.90;95.60;;;;;;8410269;28;19932;-73
2023/02/09 01:12:19;;;;;;;;;;;0.90;95.60;;;;;;8387524;28;19964;-73
2023/02/09 01:16:21;;;;;;;;;;;0.90;95.60;;;;;;8371129;28;20317;-73
2023/02/09 01:20:22;;;;;;;;;;;0.80;95.60;;;;;;8388280;28;19931;-73
2023/02/09 01:24:24;;;;;;;;;;;0.70;95.60;;;;;;8400322;28;20001;-73
2023/02/09 01:28:26;;;;;;;;;;;0.70;95.80;;;;;;8391245;28;19924;-73
2023/02/09 01:32:27;;;;;;;;;;;0.80;95.80;;;;;;8385118;28;20019;-73
2023/02/09 01:36:30;;;;;;;;;;;0.80;95.50;;;;;;8371752;28;19932;-73
2023/02/09 01:40:31;;;;;;;;;;;0.80;96.00;;;;;;8384090;28;19932;-73
2023/02/09 01:44:36;;;;;;;;;;;0.80;95.60;;;;;;8385538;28;19947;-73
2023/02/09 01:48:37;;;;;;;;;;;0.70;95.60;;;;;;8367280;28;20376;-73
2023/02/09 01:52:39;;;;;;;;;;;0.70;95.60;;;;;;8388711;28;19936;-73
2023/02/09 01:56:43;;;;;;;;;;;0.70;95.50;;;;;;8368515;28;19975;-73
2023/02/09 02:00:45;;;;;;;;;;;0.60;95.50;;;;;;8395405;28;19935;-73
2023/02/09 02:04:48;;;;;;;;;;;0.60;95.40;;;;;;8388694;28;20394;-73
2023/02/09 02:09:02;;;;;;;;;;;0.50;95.10;;;;;;8375009;28;20016;-73
2023/02/09 02:13:03;;;;;;;;;;;0.50;95.20;;;;;;8383375;28;19925;-73
2023/02/09 02:17:05;;;;;;;;;;;0.50;95.30;;;;;;8359739;28;19933;-74
2023/02/09 02:21:22;;;;;;;;;;;0.50;95.20;;;;;;8381227;28;20009;-73
2023/02/09 02:25:24;;;;;;;;;;;0.50;95.30;;;;;;8362949;28;20380;-73
2023/02/09 02:29:45;;;;;;;;;;;0.40;95.00;;;;;;8387017;28;19924;-73
2023/02/09 02:33:47;;;;;;;;;;;0.40;95.30;;;;;;8393387;28;20206;-73
2023/02/09 02:37:59;;;;;;;;;;;0.30;95.50;;;;;;8358353;28;19925;-73
2023/02/09 02:46:28;;;;;;;;;;;0.30;95.80;;;;;;8384501;28;20018;-73
2023/02/09 02:50:32;;;;;;;;;;;0.30;95.40;;;;;;8386920;28;19925;-73
2023/02/09 02:54:36;;;;;;;;;;;0.40;95.80;;;;;;8386493;28;19935;-73
2023/02/09 02:58:39;;;;;;;;;;;0.40;95.70;;;;;;8385701;28;19924;-73
2023/02/09 03:02:42;;;;;;;;;;;0.40;95.60;;;;;;8383589;28;19925;-73
2023/02/09 03:06:44;;;;;;;;;;;0.40;95.30;;;;;;8389725;28;19924;-74
2023/02/09 03:10:46;;;;;;;;;;;0.30;95.40;;;;;;8375494;28;19936;-73
2023/02/09 03:15:08;;;;;;;;;;;0.30;95.50;;;;;;8391929;28;19931;-73
2023/02/09 03:19:28;;;;;;;;;;;0.30;95.40;;;;;;8386625;28;20020;-73
2023/02/09 03:23:40;;;;;;;;;;;0.20;95.30;;;;;;8389553;28;20011;-73
2023/02/09 03:27:52;;;;;;;;;;;0.20;95.10;;;;;;8378507;28;19932;-73
2023/02/09 03:31:54;;;;;;;;;;;0.20;95.50;;;;;;8385438;28;19929;-73
2023/02/09 03:35:56;;;;;;;;;;;0.10;95.30;;;;;;8386784;28;19939;-73
2023/02/09 03:39:58;;;;;;;;;;;0.10;95.30;;;;;;8383241;28;19929;-73
2023/02/09 03:48:20;;;;;;;;;;;0.00;95.50;;;;;;8384004;28;20444;-73
2023/02/09 03:52:21;;;;;;;;;;;0.00;95.60;;;;;;8388396;28;19935;-73
2023/02/09 03:56:23;;;;;;;;;;;0.00;95.50;;;;;;8375141;28;20376;-73
2023/02/09 04:00:25;;;;;;;;;;;0.00;95.60;;;;;;8375165;28;20429;-74
2023/02/09 04:04:27;;;;;;;;;;;0.00;95.70;;;;;;8381175;28;19925;-74
2023/02/09 04:08:29;;;;;;;;;;;0.00;96.30;;;;;;8387827;28;20493;-73
2023/02/09 04:12:30;;;;;;;;;;;0.10;95.80;;;;;;8393585;28;20374;-74
2023/02/09 04:16:32;;;;;;;;;;;0.10;96.60;;;;;;8358475;28;19929;-73
2023/02/09 04:20:34;;;;;;;;;;;0.10;96.10;;;;;;8383409;28;19924;-73
2023/02/09 04:24:35;;;;;;;;;;;0.10;96.50;;;;;;8386209;28;19944;-74
2023/02/09 04:28:37;;;;;;;;;;;0.10;96.00;;;;;;8369386;28;20303;-73
2023/02/09 04:32:38;;;;;;;;;;;0.00;95.10;;;;;;8356120;28;19925;-73
2023/02/09 04:36:40;;;;;;;;;;;0.00;95.50;;;;;;8382012;28;19931;-73
2023/02/09 04:40:42;;;;;;;;;;;0.00;95.70;;;;;;8384268;28;20019;-74
2023/02/09 04:44:44;;;;;;;;;;;0.00;95.80;;;;;;8398806;28;19931;-73
2023/02/09 04:48:45;;;;;;;;;;;0.10;96.00;;;;;;8397734;28;19931;-73
2023/02/09 04:52:47;;;;;;;;;;;0.10;96.30;;;;;;8406219;28;19932;-73
2023/02/09 04:59:33;;;;;;;;;;;0.00;95.30;;;;;;8390508;28;19935;-73
2023/02/09 05:01:13;;;;;;;;;;;0.00;95.70;;;;;;8399317;28;19924;-73
2023/02/09 05:05:15;;;;;;;;;;;0.00;95.90;;;;;;8394772;28;19975;-73
2023/02/09 05:09:17;;;;;;;;;;;0.00;95.80;;;;;;8375916;28;20019;-73
2023/02/09 05:13:19;;;;;;;;;;;0.00;96.20;;;;;;8393234;28;20158;-73
2023/02/09 05:17:21;;;;;;;;;;;0.00;95.90;;;;;;8400138;28;19924;-74
2023/02/09 05:21:22;;;;;;;;;;;0.00;95.20;;;;;;8387364;28;19924;-73
2023/02/09 05:25:24;;;;;;;;;;;-0.10;96.10;;;;;;8404086;28;20334;-73
2023/02/09 05:29:26;;;;;;;;;;;-0.10;95.20;;;;;;8403474;28;19931;-73
2023/02/09 05:33:27;;;;;;;;;;;-0.10;95.70;;;;;;8400660;28;20380;-73
2023/02/09 05:37:29;;;;;;;;;;;-0.10;95.60;;;;;;8398727;28;20071;-73
2023/02/09 05:45:51;;;;;;;;;;;-0.20;95.90;;;;;;8393694;28;19932;-74
2023/02/09 05:49:53;;;;;;;;;;;-0.20;96.30;;;;;;8387044;28;19925;-73
2023/02/09 05:53:55;;;;;;;;;;;-0.20;96.90;;;;;;8364962;28;19955;-73
2023/02/09 05:57:57;;;;;;;;;;;-0.30;96.80;;;;;;8384711;28;19933;-73
2023/02/09 06:01:59;;;;;;;;;;;-0.30;96.50;;;;;;8372255;28;19974;-73
2023/02/09 06:06:01;;;;;;;;;;;-0.30;96.40;;;;;;8385268;28;20342;-74
2023/02/09 06:10:03;;;;;;;;;;;-0.30;96.70;;;;;;8389239;28;20391;-74
2023/02/09 06:14:04;;;;;;;;;;;-0.30;97.10;;;;;;8387872;28;19931;-73
2023/02/09 06:18:06;;;;;;;;;;;-0.30;97.10;;;;;;8369039;28;20003;-73
2023/02/09 06:22:07;;;;;;;;;;;-0.40;96.60;;;;;;8377571;28;19931;-73
2023/02/09 06:26:10;;;;;;;;;;;-0.40;96.40;;;;;;8383042;28;19929;-73
2023/02/09 06:30:12;;;;;;;;;;;-0.40;96.00;;;;;;8367595;28;20051;-73
2023/02/09 06:34:14;;;;;;;;;;;-0.40;95.70;;;;;;8366367;28;20015;-73
2023/02/09 06:38:15;;;;;;;;;;;-0.50;95.70;;;;;;8388726;28;19944;-73
2023/02/09 06:42:17;;;;;;;;;;;-0.50;95.60;;;;;;8376990;28;19925;-73
2023/02/09 06:46:18;;;;;;;;;;;-0.60;95.50;;;;;;8362825;28;19982;-73
2023/02/09 06:50:20;;;;;;;;;;;-0.60;95.50;;;;;;8383906;28;20406;-73
2023/02/09 06:54:22;;;;;;;;;;;-0.60;95.40;;;;;;8366529;28;19935;-73
2023/02/09 06:58:23;;;;;;;;;;;-0.60;95.70;;;;;;8378816;28;19939;-73
2023/02/09 07:02:25;;;;;;;;;;;-0.70;95.80;;;;;;8380025;28;19940;-74
2023/02/09 07:06:27;;;;;;;;;;;-0.70;95.80;;;;;;8369195;28;20284;-73
2023/02/09 07:10:28;;;;;;;;;;;-0.70;96.00;;;;;;8375680;28;19925;-74
2023/02/09 07:14:30;;;;;;;;;;;-0.70;95.80;;;;;;8391942;28;19925;-73
2023/02/09 07:18:32;;;;;;;;;;;-0.80;95.70;;;;;;8390339;28;19960;-74
2023/02/09 07:22:34;;;;;;;;;;;-0.90;95.90;;;;;;8391545;28;19931;-73
2023/02/09 07:26:35;;;;;;;;;;;-0.90;96.10;;;;;;8394588;28;19960;-73
2023/02/09 07:30:39;;;;;;;;;;;-0.90;96.00;;;;;;8375502;28;20340;-73
2023/02/09 07:34:41;;;;;;;;;;;-0.90;96.60;;;;;;8391177;28;19925;-73
2023/02/09 07:38:43;;;;;;;;;;;-0.80;96.60;;;;;;8385634;28;19925;-73
2023/02/09 07:42:45;;;;;;;;;;;-0.70;96.40;;;;;;8392501;28;19928;-73
2023/02/09 07:46:46;;;;;;;;;;;-0.60;96.70;;;;;;8382513;28;19960;-73
2023/02/09 07:50:48;;;;;;;;;;;-0.50;96.60;;;;;;8373431;28;20368;-73
2023/02/09 07:54:50;;;;;;;;;;;-0.40;96.60;;;;;;8375517;28;19925;-73
2023/02/09 07:58:52;;;;;;;;;;;-0.30;97.20;;;;;;8391118;28;19960;-73
2023/02/09 08:02:54;;;;;;;;;;;-0.20;97.10;;;;;;8391315;28;19924;-74
2023/02/09 08:06:56;;;;;;;;;;;-0.20;97.60;;;;;;8373855;28;20246;-73
2023/02/09 08:10:59;;;;;;;;;;;0.00;97.70;;;;;;8390454;28;19925;-74
2023/02/09 08:15:01;;;;;;;;;;;0.10;97.60;;;;;;8401904;28;20387;-74
2023/02/09 08:19:29;;;;;;;;;;;0.20;97.20;;;;;;8376648;28;19963;-74
2023/02/09 08:23:33;;;;;;;;;;;0.30;97.70;;;;;;8392441;28;19932;-73
2023/02/09 08:27:35;;;;;;;;;;;0.40;98.10;;;;;;8383642;28;19924;-73
2023/02/09 08:31:37;;;;;;;;;;;0.50;98.30;;;;;;8397225;28;19928;-74
2023/02/09 08:35:38;;;;;;;;;;;0.60;97.90;;;;;;8398393;28;19972;-73
2023/02/09 08:39:40;;;;;;;;;;;0.70;98.30;;;;;;8391091;28;19948;-73
2023/02/09 08:43:45;;;;;;;;;;;0.80;98.70;;;;;;8380776;28;20015;-73
2023/02/09 08:47:47;;;;;;;;;;;0.90;98.50;;;;;;8378359;28;20295;-73
2023/02/09 08:51:49;;;;;;;;;;;0.90;99.40;;;;;;8394600;28;19976;-73
2023/02/09 08:55:51;;;;;;;;;;;1.10;98.40;;;;;;8395912;28;19929;-73
2023/02/09 08:59:52;;;;;;;;;;;1.10;98.60;;;;;;8397048;28;19963;-73
2023/02/09 09:03:54;;;;;;;;;;;1.20;98.90;;;;;;8398974;28;19932;-73
2023/02/09 09:07:56;;;;;;;;;;;1.30;98.60;;;;;;8395324;28;19981;-73
2023/02/09 09:11:57;;;;;;;;;;;1.40;99.00;;;;;;8395934;28;19955;-73
2023/02/09 09:15:59;;;;;;;;;;;1.50;99.10;;;;;;8375247;28;19964;-73
2023/02/09 09:20:01;;;;;;;;;;;1.60;99.20;;;;;;8391462;28;21480;-73
2023/02/09 09:24:02;;;;;;;;;;;1.60;99.60;;;;;;8394738;28;20322;-73
2023/02/09 09:28:04;;;;;;;;;;;1.60;99.80;;;;;;8395628;28;20411;-73
2023/02/09 09:32:09;;;;;;;;;;;1.70;99.70;;;;;;8376011;28;19931;-73
2023/02/09 09:36:11;;;;;;;;;;;1.80;99.90;;;;;;8396484;28;19932;-73
2023/02/09 09:40:20;;;;;;;;;;;1.90;99.90;;;;;;8389937;28;19928;-73
2023/02/09 09:44:41;;;;;;;;;;;2.10;99.90;;;;;;8394157;28;20308;-73
2023/02/09 09:48:45;;;;;;;;;;;2.30;99.90;;;;;;8374635;28;19936;-73
2023/02/09 09:52:52;;;;;;;;;;;2.50;99.90;;;;;;8375575;28;19928;-73
2023/02/09 09:56:54;;;;;;;;;;;2.70;99.90;;;;;;8388143;28;19925;-73
2023/02/09 10:00:56;;;;;;;;;;;3.00;99.90;;;;;;8390709;28;19928;-73
2023/02/09 10:05:12;;;;;;;;;;;3.20;99.90;;;;;;8380162;28;19998;-73
2023/02/09 10:09:27;;;;;;;;;;;3.40;99.90;;;;;;8398410;28;19932;-73
2023/02/09 10:13:34;;;;;;;;;;;3.60;99.90;;;;;;8396384;28;19925;-73
2023/02/09 10:17:36;;;;;;;;;;;3.70;99.90;;;;;;8373330;28;19928;-74
2023/02/09 10:21:37;;;;;;;;;;;3.70;99.90;;;;;;8392710;28;19928;-73
2023/02/09 10:25:45;;;;;;;;;;;3.80;99.90;;;;;;8393217;28;19924;-73
2023/02/09 10:29:47;;;;;;;;;;;3.80;99.90;;;;;;8396049;28;19928;-73
2023/02/09 10:33:53;;;;;;;;;;;3.90;99.90;;;;;;8375798;28;19924;-73
2023/02/09 10:37:57;;;;;;;;;;;4.10;99.90;;;;;;8374695;28;19928;-73
2023/02/09 10:42:12;;;;;;;;;;;4.10;99.90;;;;;;8369590;28;19924;-73
2023/02/09 10:46:16;;;;;;;;;;;4.30;99.90;;;;;;8386298;28;20010;-73
2023/02/09 10:50:18;;;;;;;;;;;4.30;99.90;;;;;;8375001;28;19970;-73
2023/02/09 10:54:20;;;;;;;;;;;4.40;99.90;;;;;;8393075;28;19929;-73
2023/02/09 10:58:24;;;;;;;;;;;4.30;99.90;;;;;;8394712;28;20394;-73
2023/02/09 11:02:28;;;;;;;;;;;4.30;99.90;;;;;;8374045;28;19931;-73
2023/02/09 11:06:47;;;;;;;;;;;4.40;99.90;;;;;;8399514;28;19925;-73
2023/02/09 11:11:00;;;;;;;;;;;4.40;99.90;;;;;;8371580;28;20018;-73
2023/02/09 11:15:02;;;;;;;;;;;4.40;99.90;;;;;;8388557;28;19947;-73
2023/02/09 11:19:21;;;;;;;;;;;4.50;99.90;;;;;;8391126;28;19924;-73
2023/02/09 11:23:37;;;;;;;;;;;4.60;99.90;;;;;;8375657;28;19955;-73
2023/02/09 11:27:38;;;;;;;;;;;4.80;99.90;;;;;;8389784;28;19987;-73
2023/02/09 11:31:41;;;;;;;;;;;5.10;99.90;;;;;;8373608;28;19971;-73
2023/02/09 11:35:49;;;;;;;;;;;5.40;99.90;;;;;;8389851;28;19928;-73
2023/02/09 11:40:09;;;;;;;;;;;5.60;99.90;;;;;;8370026;28;19978;-73
2023/02/09 11:44:16;;;;;;;;;;;5.80;99.90;;;;;;8368022;28;20317;-73
2023/02/09 11:48:21;;;;;;;;;;;6.10;99.90;;;;;;8362893;28;20031;-73
2023/02/09 11:52:32;;;;;;;;;;;6.50;99.90;;;;;;8362240;28;19925;-73
2023/02/09 11:56:36;;;;;;;;;;;6.80;99.90;;;;;;8344637;28;19925;-73
2023/02/09 12:00:46;;;;;;;;;;;6.90;99.90;;;;;;8366580;28;20016;-73
2023/02/09 12:04:59;;;;;;;;;;;6.80;99.90;;;;;;8360732;28;19932;-73
2023/02/09 12:09:07;;;;;;;;;;;6.70;99.90;;;;;;8365667;28;20402;-73
2023/02/09 12:13:25;;;;;;;;;;;6.50;99.90;;;;;;8364056;28;19935;-73
2023/02/09 12:17:39;;;;;;;;;;;6.20;99.90;;;;;;8345297;28;19947;-73
2023/02/09 12:21:40;;;;;;;;;;;6.10;99.90;;;;;;8370271;28;20022;-73
2023/02/09 12:25:58;;;;;;;;;;;6.30;99.90;;;;;;8361919;28;19935;-73
2023/02/09 12:40:10;;;;;;;;;;;6.20;99.90;;;;;;8373505;28;19997;-73
2023/02/09 12:44:12;;;;;;;;;;;6.00;99.90;;;;;;8364754;28;19924;-73
2023/02/09 12:48:16;;;;;;;;;;;6.10;99.90;;;;;;8361526;28;20299;-73
2023/02/09 12:52:18;;;;;;;;;;;6.00;99.90;;;;;;8361699;28;20372;-73
2023/02/09 12:56:19;;;;;;;;;;;6.10;99.90;;;;;;8367068;28;20330;-73
2023/02/09 13:00:28;;;;;;;;;;;6.10;99.90;;;;;;8373909;28;19932;-73
2023/02/09 13:04:43;;;;;;;;;;;6.10;99.90;;;;;;8380958;28;20554;-73
2023/02/09 13:08:47;;;;;;;;;;;6.30;99.90;;;;;;8368040;28;19925;-73
2023/02/09 13:13:12;;;;;;;;;;;6.50;99.90;;;;;;8361733;28;19939;-73
2023/02/09 13:17:20;;;;;;;;;;;6.60;99.90;;;;;;8351924;28;19925;-73
2023/02/09 13:21:37;;;;;;;;;;;6.60;99.90;;;;;;8362158;28;20439;-73
2023/02/09 13:25:38;;;;;;;;;;;6.50;99.90;;;;;;8375295;28;19975;-73
2023/02/09 13:29:46;;;;;;;;;;;6.50;99.90;;;;;;8363394;28;19924;-73
2023/02/09 13:33:49;;;;;;;;;;;6.50;99.90;;;;;;8375929;28;19932;-73
2023/02/09 13:37:53;;;;;;;;;;;6.40;99.90;;;;;;8368907;28;20407;-73
2023/02/09 13:41:55;;;;;;;;;;;6.40;99.90;;;;;;8369721;28;20322;-73
2023/02/09 13:45:57;;;;;;;;;;;6.40;99.90;;;;;;8368422;28;19935;-73
2023/02/09 13:50:04;;;;;;;;;;;6.40;99.90;;;;;;8370858;28;19933;-73
2023/02/09 13:54:05;;;;;;;;;;;6.40;99.90;;;;;;8384640;28;19931;-73
2023/02/09 13:58:13;;;;;;;;;;;6.30;99.90;;;;;;8373755;28;19932;-73
2023/02/09 14:02:17;;;;;;;;;;;6.20;99.90;;;;;;8365968;28;19924;-73
2023/02/09 14:06:22;;;;;;;;;;;6.20;99.90;;;;;;8359133;28;19936;-72
2023/02/09 14:10:25;;;;;;;;;;;6.10;99.90;;;;;;8362337;28;19929;-73
2023/02/09 14:16:05;;;;;;;;;;;6.00;99.90;;;;;;8364201;28;19925;-73
2023/02/09 14:18:57;;;;;;;;;;;6.00;99.90;;;;;;8368348;28;19970;-73
2023/02/09 14:23:00;;;;;;;;;;;6.00;99.90;;;;;;8367893;28;20120;-73
2023/02/09 14:27:15;;;;;;;;;;;6.00;99.90;;;;;;8359236;28;20411;-73
2023/02/09 14:31:18;;;;;;;;;;;6.00;99.90;;;;;;8371023;28;20388;-73
2023/02/09 14:35:21;;;;;;;;;;;6.00;99.90;;;;;;8362785;28;19928;-73
2023/02/09 14:39:23;;;;;;;;;;;6.00;99.90;;;;;;8366707;28;19956;-73
2023/02/09 14:43:26;;;;;;;;;;;6.00;99.90;;;;;;8372063;28;20284;-73
2023/02/09 14:47:29;;;;;;;;;;;6.00;99.90;;;;;;8361286;28;20390;-73
2023/02/09 14:51:30;;;;;;;;;;;5.90;99.90;;;;;;8364388;28;19932;-73
2023/02/09 14:55:38;;;;;;;;;;;5.90;99.90;;;;;;8365219;28;20025;-73
2023/02/09 14:59:40;;;;;;;;;;;5.90;99.90;;;;;;8363645;28;19924;-73
2023/02/09 15:03:42;;;;;;;;;;;5.90;99.90;;;;;;8371146;28;20287;-73
2023/02/09 15:07:50;;;;;;;;;;;5.90;99.90;;;;;;8364279;28;19925;-73
2023/02/09 15:12:04;;;;;;;;;;;5.90;99.90;;;;;;8360087;28;19925;-73
2023/02/09 15:21:16;;;;;;;;;;;5.90;99.90;;;;;;8371161;28;20011;-73
2023/02/09 15:25:18;;;;;;;;;;;5.90;99.90;;;;;;8361327;28;19928;-73
2023/02/09 15:29:19;;;;;;;;;;;5.80;99.90;;;;;;8366260;28;20391;-73
2023/02/09 15:33:21;;;;;;;;;;;5.80;99.90;;;;;;8361117;28;19925;-73
2023/02/09 15:37:27;;;;;;;;;;;5.80;99.90;;;;;;8353498;28;19987;-73
2023/02/09 15:49:59;;;;;;;;;;;5.80;99.90;;;;;;8363876;28;19933;-73
2023/02/09 15:54:02;;;;;;;;;;;5.80;99.90;;;;;;8360399;28;19924;-73
2023/02/09 15:58:09;;;;;;;;;;;5.80;99.90;;;;;;8353195;28;19925;-73
2023/02/09 16:02:12;;;;;;;;;;;5.80;99.90;;;;;;8365958;28;19924;-73
2023/02/09 16:06:15;;;;;;;;;;;5.80;99.90;;;;;;8359519;28;19971;-73
2023/02/09 16:10:22;;;;;;;;;;;5.80;99.90;;;;;;8361296;28;20011;-73
2023/02/09 16:14:24;;;;;;;;;;;5.80;99.90;;;;;;8366443;28;19928;-73
2023/02/09 16:18:26;;;;;;;;;;;5.80;99.90;;;;;;8353640;28;19971;-73
2023/02/09 16:22:27;;;;;;;;;;;5.70;99.90;;;;;;8356720;28;19925;-73
2023/02/09 16:26:30;;;;;;;;;;;5.70;99.90;;;;;;8362823;28;19955;-73
2023/02/09 16:30:37;;;;;;;;;;;5.70;99.90;;;;;;8360551;28;19972;-73
2023/02/09 16:34:38;;;;;;;;;;;5.70;99.90;;;;;;8370663;28;19983;-73
2023/02/09 16:38:40;;;;;;;;;;;5.70;99.90;;;;;;8368106;28;20037;-73
2023/02/09 16:42:42;;;;;;;;;;;5.70;99.90;;;;;;8371465;28;20389;-73
2023/02/09 16:46:45;;;;;;;;;;;5.60;99.90;;;;;;8361089;28;19925;-73
2023/02/09 16:50:52;;;;;;;;;;;5.60;99.90;;;;;;8379207;28;20274;-73
2023/02/09 16:54:58;;;;;;;;;;;5.60;99.90;;;;;;8364495;28;19924;-73
2023/02/09 16:59:00;;;;;;;;;;;5.60;99.90;;;;;;8365087;28;20376;-72
2023/02/09 17:03:04;;;;;;;;;;;5.60;99.90;;;;;;8366506;28;20356;-72
2023/02/09 17:07:07;;;;;;;;;;;5.60;99.90;;;;;;8368224;28;19933;-73
2023/02/09 17:11:14;;;;;;;;;;;5.60;99.90;;;;;;8372451;28;19928;-73
2023/02/09 17:15:15;;;;;;;;;;;5.60;99.90;;;;;;8367244;28;19933;-73
2023/02/09 17:19:32;;;;;;;;;;;5.60;99.90;;;;;;8363201;28;19936;-73
2023/02/09 17:23:48;;;;;;;;;;;5.60;99.90;;;;;;8353026;28;19935;-73
2023/02/09 17:27:49;;;;;;;;;;;5.70;99.90;;;;;;8364397;28;19936;-73
2023/02/09 17:31:51;;;;;;;;;;;5.70;99.90;;;;;;8366337;28;19938;-73
2023/02/09 17:35:55;;;;;;;;;;;5.70;99.90;;;;;;8368114;28;20023;-72
2023/02/09 17:40:18;;;;;;;;;;;5.70;99.90;;;;;;8378224;28;20412;-73
2023/02/09 17:44:25;;;;;;;;;;;5.70;99.90;;;;;;8355736;28;19936;-73
2023/02/09 17:48:46;;;;;;;;;;;5.70;99.90;;;;;;8365754;28;20015;-73
2023/02/09 17:52:48;;;;;;;;;;;5.60;99.90;;;;;;8366457;28;20281;-73
2023/02/09 17:56:49;;;;;;;;;;;5.50;99.90;;;;;;8375036;28;19924;-73
2023/02/09 18:00:52;;;;;;;;;;;5.40;99.90;;;;;;8367919;28;20011;-73
2023/02/09 18:04:53;;;;;;;;;;;5.40;99.90;;;;;;8346706;28;19935;-73
2023/02/09 18:08:55;;;;;;;;;;;5.30;99.90;;;;;;8364703;28;19925;-72
2023/02/09 18:12:57;;;;;;;;;;;5.20;99.90;;;;;;8367280;28;19925;-73
2023/02/09 18:16:59;;;;;;;;;;;5.20;99.90;;;;;;8367094;28;19938;-73
2023/02/09 18:21:01;;;;;;;;;;;5.20;99.90;;;;;;8356481;28;19939;-73
2023/02/09 18:25:02;;;;;;;;;;;5.20;99.90;;;;;;8364063;28;19963;-73
2023/02/09 18:29:04;;;;;;;;;;;5.20;99.90;;;;;;8367805;28;19924;-73
2023/02/09 18:33:06;;;;;;;;;;;5.20;99.90;;;;;;8362328;28;19968;-73
2023/02/09 18:37:08;;;;;;;;;;;5.10;99.90;;;;;;8362465;28;19935;-73
2023/02/09 18:41:13;;;;;;;;;;;5.00;99.90;;;;;;8365396;28;19929;-73
2023/02/09 18:45:15;;;;;;;;;;;4.90;99.90;;;;;;8360049;28;19929;-72
2023/02/09 18:49:17;;;;;;;;;;;4.80;99.90;;;;;;8365465;28;19932;-73
2023/02/09 18:53:21;;;;;;;;;;;4.70;99.90;;;;;;8366689;28;19959;-73
2023/02/09 18:57:22;;;;;;;;;;;4.70;99.90;;;;;;8360181;28;19971;-73
2023/02/09 19:01:24;;;;;;;;;;;4.60;99.90;;;;;;8354762;28;19928;-73
2023/02/09 19:05:27;;;;;;;;;;;4.50;99.90;;;;;;8361826;28;19929;-73
2023/02/09 19:09:29;;;;;;;;;;;4.40;99.90;;;;;;8368533;28;19967;-73
2023/02/09 19:13:32;;;;;;;;;;;4.30;99.90;;;;;;8361528;28;19928;-73
2023/02/09 19:17:34;;;;;;;;;;;4.30;99.90;;;;;;8362960;28;20039;-72
2023/02/09 19:21:36;;;;;;;;;;;4.20;99.90;;;;;;8377838;28;20384;-73
2023/02/09 19:25:37;;;;;;;;;;;4.10;99.90;;;;;;8364581;28;20359;-72
2023/02/09 19:29:42;;;;;;;;;;;4.00;99.90;;;;;;8346020;28;19924;-73
2023/02/09 19:33:44;;;;;;;;;;;3.90;99.90;;;;;;8367177;28;19963;-72
2023/02/09 19:37:48;;;;;;;;;;;3.80;99.90;;;;;;8360973;28;20012;-73
2023/02/09 19:41:50;;;;;;;;;;;3.70;99.90;;;;;;8363611;28;20319;-73
2023/02/09 19:45:55;;;;;;;;;;;3.60;99.90;;;;;;8365624;28;19925;-73
2023/02/09 19:49:57;;;;;;;;;;;3.60;99.90;;;;;;8365773;28;20399;-73
2023/02/09 19:53:58;;;;;;;;;;;3.50;99.90;;;;;;8363346;28;19924;-72
2023/02/09 19:58:00;;;;;;;;;;;3.50;99.90;;;;;;8362705;28;19925;-73
2023/02/09 20:02:02;;;;;;;;;;;3.30;99.90;;;;;;8366092;28;19925;-72
2023/02/09 20:06:08;;;;;;;;;;;3.20;99.90;;;;;;8379277;28;19924;-72
2023/02/09 20:10:10;;;;;;;;;;;3.10;99.90;;;;;;8376275;28;20615;-72
2023/02/09 20:14:11;;;;;;;;;;;2.90;99.90;;;;;;8376691;28;20270;-72
2023/02/09 20:18:13;;;;;;;;;;;2.90;99.90;;;;;;8369988;28;20670;-72
2023/02/09 20:22:17;;;;;;;;;;;2.80;99.90;;;;;;8357892;28;20284;-73
2023/02/09 20:26:21;;;;;;;;;;;2.80;99.90;;;;;;8362933;28;19930;-72
2023/02/09 20:30:23;;;;;;;;;;;2.70;99.90;;;;;;8368595;28;19976;-73
2023/02/09 20:34:25;;;;;;;;;;;2.70;99.90;;;;;;8373069;28;19935;-72
2023/02/09 20:38:26;;;;;;;;;;;2.70;99.90;;;;;;8366171;28;19961;-73
2023/02/09 20:46:57;;;;;;;;;;;2.70;99.90;;;;;;8368777;28;19928;-73
2023/02/09 20:50:59;;;;;;;;;;;2.60;99.90;;;;;;8372951;28;22341;-73
2023/02/09 20:55:00;;;;;;;;;;;2.60;99.90;;;;;;8364166;28;20028;-73
2023/02/09 20:59:03;;;;;;;;;;;2.50;99.90;;;;;;8363852;28;19955;-73
2023/02/09 21:03:06;;;;;;;;;;;2.60;99.90;;;;;;8377026;28;20007;-72
2023/02/09 21:07:07;;;;;;;;;;;2.50;99.90;;;;;;8363232;28;19924;-72
2023/02/09 21:11:09;;;;;;;;;;;2.40;99.90;;;;;;8371592;28;19931;-73
2023/02/09 21:15:11;;;;;;;;;;;2.40;99.90;;;;;;8366126;28;19924;-73
2023/02/09 21:19:12;;;;;;;;;;;2.30;99.90;;;;;;8368603;28;20290;-72
2023/02/09 21:23:15;;;;;;;;;;;2.20;99.90;;;;;;8381193;28;19932;-73
2023/02/09 21:27:18;;;;;;;;;;;2.10;99.90;;;;;;8370675;28;19925;-72
2023/02/09 21:31:20;;;;;;;;;;;2.00;99.90;;;;;;8370115;28;20270;-73
2023/02/09 21:35:22;;;;;;;;;;;1.90;99.90;;;;;;8385326;28;19935;-72
2023/02/09 21:39:24;;;;;;;;;;;1.90;99.90;;;;;;8358099;28;20336;-73
2023/02/09 21:43:25;;;;;;;;;;;1.80;99.90;;;;;;8374705;28;19980;-72
2023/02/09 21:47:28;;;;;;;;;;;1.80;99.90;;;;;;8361808;28;19924;-72
2023/02/09 21:51:29;;;;;;;;;;;1.70;99.90;;;;;;8361779;28;20355;-72
2023/02/09 21:55:31;;;;;;;;;;;1.60;99.90;;;;;;8361151;28;19928;-72
2023/02/09 21:59:33;;;;;;;;;;;1.60;99.90;;;;;;8365925;28;20023;-73
2023/02/09 22:03:34;;;;;;;;;;;1.60;99.90;;;;;;8378043;28;19925;-72
2023/02/09 22:07:36;;;;;;;;;;;1.50;99.90;;;;;;8384430;28;19969;-73
2023/02/09 22:11:39;;;;;;;;;;;1.50;99.90;;;;;;8392387;28;20212;-72
2023/02/09 22:15:42;;;;;;;;;;;1.40;99.90;;;;;;8390093;28;19963;-72
2023/02/09 22:19:43;;;;;;;;;;;1.40;99.90;;;;;;8374222;28;19925;-73
2023/02/09 22:23:45;;;;;;;;;;;1.40;99.90;;;;;;8392413;28;19924;-73
2023/02/09 22:27:47;;;;;;;;;;;1.30;99.90;;;;;;8387160;28;19963;-72
2023/02/09 22:31:48;;;;;;;;;;;1.30;99.90;;;;;;8386077;28;20441;-73
2023/02/09 22:35:50;;;;;;;;;;;1.20;99.90;;;;;;8385415;28;19939;-72
2023/02/09 22:39:52;;;;;;;;;;;1.20;99.90;;;;;;8380060;28;19924;-73
2023/02/09 22:43:56;;;;;;;;;;;1.10;99.90;;;;;;8394889;28;20051;-72
2023/02/09 22:47:57;;;;;;;;;;;1.10;99.90;;;;;;8392131;28;19931;-72
2023/02/09 22:51:59;;;;;;;;;;;1.00;99.90;;;;;;8391036;28;19952;-72
2023/02/09 22:56:02;;;;;;;;;;;0.90;99.90;;;;;;8389588;28;19948;-72
2023/02/09 23:00:06;;;;;;;;;;;0.90;99.90;;;;;;8386642;28;19932;-72
2023/02/09 23:04:08;;;;;;;;;;;0.90;99.90;;;;;;8366833;28;20411;-73
2023/02/09 23:08:10;;;;;;;;;;;0.90;99.90;;;;;;8381533;28;19939;-73
2023/02/09 23:12:11;;;;;;;;;;;0.90;99.90;;;;;;8374567;28;20370;-72
2023/02/09 23:16:18;;;;;;;;;;;0.90;99.90;;;;;;8371560;28;19960;-72
2023/02/09 23:20:20;;;;;;;;;;;0.90;99.90;;;;;;8383086;28;19933;-73
2023/02/09 23:24:23;;;;;;;;;;;0.90;99.90;;;;;;8378519;28;19939;-73
2023/02/09 23:28:24;;;;;;;;;;;0.90;99.90;;;;;;8375569;28;19924;-73
2023/02/09 23:32:26;;;;;;;;;;;0.90;99.90;;;;;;8374390;28;20231;-72
2023/02/09 23:36:29;;;;;;;;;;;0.90;99.90;;;;;;8386530;28;19960;-72
2023/02/09 23:40:31;;;;;;;;;;;0.80;99.90;;;;;;8382622;28;19925;-72
2023/02/09 23:44:32;;;;;;;;;;;0.80;99.90;;;;;;8383775;28;19960;-73
2023/02/09 23:48:34;;;;;;;;;;;0.80;99.90;;;;;;8386675;28;19929;-72
2023/02/09 23:52:36;;;;;;;;;;;0.70;99.90;;;;;;8389645;28;19966;-73
2023/02/09 23:56:38;;;;;;;;;;;0.60;99.90;;;;;;8390276;28;20003;-72
